Pinecreek, Minnesota
Current Conditions -  °F | °C
As of 4:15 PM on Wednesday 28 Jan 2015 (Local Time) from KROX Reporting Station
Haze Haze  
Wind Chill: 34°   Ceiling: 500
Heat Index: 34°   Visibility: 0.75mi
Dew Point: 28°   Wind: 0mph
Humidity: 81%   Direction: NA
Pressure: 29.79"   Gusts: NA
Location:  48.7499°N, 95.6399°W
Report Text: KROX 282215Z AUTO 00000KT 3/4SM HZ OVC005 01/M02 A2979 RMK AO2
Loading
Personal Weather Stations






























Interactive Weather Map New forecast layout! Learn more

10-Day Weather Forecast

Advertisements
Track Severe Weather on mobile